createdAt,value
2019-01-24T00:01:08.312Z,18.23
2019-01-24T00:03:37.961Z,17.70
2019-01-24T00:06:07.609Z,19.60
2019-01-24T00:08:37.324Z,16.37
2019-01-24T00:11:06.991Z,18.60
2019-01-24T00:13:36.680Z,18.53
2019-01-24T00:16:08.237Z,17.73
2019-01-24T00:18:38.003Z,17.73
2019-01-24T00:21:07.635Z,18.43
2019-01-24T00:23:37.302Z,19.27
2019-01-24T00:26:07.120Z,17.57
2019-01-24T00:28:36.763Z,18.13
2019-01-24T00:31:06.441Z,17.53
2019-01-24T00:33:36.063Z,17.47
2019-01-24T00:36:06.390Z,17.40
2019-01-24T00:38:35.996Z,19.13
2019-01-24T00:41:05.763Z,17.60
2019-01-24T00:43:35.443Z,18.10
2019-01-24T00:46:05.080Z,17.77
2019-01-24T00:48:34.741Z,17.00
2019-01-24T00:51:04.372Z,18.60
2019-01-24T00:53:34.043Z,16.43
2019-01-24T00:56:03.967Z,18.03
2019-01-24T00:58:33.577Z,14.87
2019-01-24T01:01:03.266Z,16.30
2019-01-24T01:03:32.869Z,19.53
2019-01-24T01:06:02.931Z,19.40
2019-01-24T01:08:32.618Z,18.33
2019-01-24T01:11:02.255Z,14.00
2019-01-24T01:13:32.014Z,16.93
2019-01-24T01:16:01.695Z,19.07
2019-01-24T01:18:31.386Z,20.00
2019-01-24T01:21:01.108Z,19.23
2019-01-24T01:23:30.727Z,19.80
2019-01-24T01:26:00.394Z,19.60
2019-01-24T01:28:30.010Z,18.10
2019-01-24T01:30:59.793Z,18.90
2019-01-24T01:33:29.457Z,18.13
2019-01-24T01:35:59.162Z,19.30
2019-01-24T01:38:28.799Z,18.47
2019-01-24T01:40:58.483Z,18.23
2019-01-24T01:43:28.106Z,19.67
2019-01-24T01:45:57.759Z,17.87
2019-01-24T01:48:27.427Z,18.90
2019-01-24T01:50:57.056Z,21.30
2019-01-24T01:53:26.727Z,18.93
2019-01-24T01:55:56.347Z,19.87
2019-01-24T01:58:26.014Z,19.63
2019-01-24T02:00:55.640Z,17.90
2019-01-24T02:03:25.279Z,18.57
2019-01-24T02:05:54.970Z,18.53
2019-01-24T02:08:24.565Z,18.33
2019-01-24T02:10:54.263Z,18.77
2019-01-24T02:13:23.916Z,17.57
2019-01-24T02:15:53.600Z,18.43
2019-01-24T02:18:23.223Z,19.37
2019-01-24T02:20:52.965Z,17.07
2019-01-24T02:23:22.598Z,17.97
2019-01-24T02:25:52.296Z,18.83
2019-01-24T02:28:21.987Z,16.03
2019-01-24T02:30:51.622Z,17.47
2019-01-24T02:33:21.349Z,16.13
2019-01-24T02:35:51.002Z,17.80
2019-01-24T02:38:20.669Z,15.97
2019-01-24T02:40:50.310Z,19.40
2019-01-24T02:43:20.007Z,17.43
2019-01-24T02:45:49.632Z,18.40
2019-01-24T02:48:19.336Z,16.90
2019-01-24T02:50:49.012Z,17.00
2019-01-24T02:53:18.724Z,17.73
2019-01-24T02:55:48.333Z,17.53
2019-01-24T02:58:18.021Z,16.80
2019-01-24T03:00:47.634Z,17.90
2019-01-24T03:03:17.294Z,17.53
2019-01-24T03:05:46.978Z,18.40
2019-01-24T03:08:16.677Z,19.50
2019-01-24T03:10:46.394Z,19.87
2019-01-24T03:13:16.014Z,17.90
2019-01-24T03:15:45.647Z,20.17
2019-01-24T03:18:15.319Z,19.50
2019-01-24T03:20:45.013Z,19.33
2019-01-24T03:23:15.088Z,19.50
2019-01-24T03:25:44.770Z,20.27
2019-01-24T03:28:14.482Z,18.97
2019-01-24T03:30:44.156Z,21.13
2019-01-24T03:33:13.850Z,21.37
2019-01-24T03:35:43.560Z,20.23
2019-01-24T03:38:13.221Z,19.63
2019-01-24T03:40:42.831Z,20.63
2019-01-24T03:43:12.532Z,18.33
2019-01-24T03:45:42.151Z,18.97
2019-01-24T03:48:11.846Z,18.73
2019-01-24T03:50:41.483Z,18.97
2019-01-24T03:53:11.153Z,17.77
2019-01-24T03:55:40.828Z,19.57
2019-01-24T03:58:10.545Z,19.17
2019-01-24T04:00:40.163Z,19.53
2019-01-24T04:03:09.849Z,17.57
2019-01-24T04:05:39.469Z,18.67
2019-01-24T04:08:09.513Z,20.03
2019-01-24T04:10:39.155Z,19.80
2019-01-24T04:13:08.767Z,19.60
2019-01-24T04:15:38.635Z,20.70
2019-01-24T04:18:08.662Z,20.70
2019-01-24T04:20:38.348Z,22.23
2019-01-24T04:23:08.079Z,19.03
2019-01-24T04:25:37.698Z,20.13
2019-01-24T04:28:07.383Z,19.33
2019-01-24T04:30:37.019Z,19.07
2019-01-24T04:33:06.728Z,19.30
2019-01-24T04:35:36.527Z,19.93
2019-01-24T04:38:06.246Z,22.83
2019-01-24T04:40:35.852Z,20.87
2019-01-24T04:43:05.464Z,19.60
2019-01-24T04:45:35.141Z,19.50
2019-01-24T04:48:04.889Z,20.37
2019-01-24T04:50:34.567Z,21.47
2019-01-24T04:53:04.195Z,19.33
2019-01-24T04:55:33.867Z,21.60
2019-01-24T04:58:03.476Z,20.40
2019-01-24T05:00:33.231Z,19.63
2019-01-24T05:03:02.925Z,21.63
2019-01-24T05:05:32.555Z,20.73
2019-01-24T05:08:02.243Z,21.10
2019-01-24T05:10:31.866Z,21.80
2019-01-24T05:13:01.544Z,19.47
2019-01-24T05:15:31.183Z,21.83
2019-01-24T05:18:00.892Z,22.50
2019-01-24T05:20:30.527Z,19.90
2019-01-24T05:23:00.284Z,20.57
2019-01-24T05:25:29.979Z,22.53
2019-01-24T05:27:59.664Z,23.93
2019-01-24T05:30:29.901Z,21.27
2019-01-24T05:32:59.575Z,21.40
2019-01-24T05:35:34.749Z,21.80
2019-01-24T05:38:00.674Z,20.73
2019-01-24T05:40:30.321Z,21.53
2019-01-24T05:43:00.012Z,22.37
2019-01-24T05:45:29.710Z,21.63
2019-01-24T05:47:59.348Z,21.10
2019-01-24T05:50:28.953Z,22.60
2019-01-24T05:52:58.696Z,22.43
2019-01-24T05:55:28.474Z,21.40
2019-01-24T05:57:58.339Z,22.67
2019-01-24T06:00:47.049Z,22.83
2019-01-24T06:03:16.859Z,22.47
2019-01-24T06:05:46.516Z,21.67
2019-01-24T06:08:16.121Z,21.50
2019-01-24T06:10:45.823Z,20.67
2019-01-24T06:13:15.437Z,17.13
2019-01-24T06:15:45.399Z,20.47
2019-01-24T06:18:15.012Z,22.63
2019-01-24T06:20:44.687Z,21.40
2019-01-24T06:23:14.383Z,19.67
2019-01-24T06:25:44.093Z,22.17
2019-01-24T06:28:13.727Z,19.63
2019-01-24T06:30:43.441Z,22.87
2019-01-24T06:33:13.130Z,21.33
2019-01-24T06:35:48.676Z,20.03
2019-01-24T06:38:14.248Z,20.43
2019-01-24T06:40:43.959Z,21.53
2019-01-24T06:43:13.644Z,21.63
2019-01-24T06:45:43.297Z,22.57
2019-01-24T06:48:13.132Z,21.80
2019-01-24T06:50:42.766Z,21.03
2019-01-24T06:53:12.445Z,22.13
2019-01-24T06:55:42.079Z,22.37
2019-01-24T06:58:11.756Z,22.00
2019-01-24T07:00:41.468Z,21.20
2019-01-24T07:03:11.139Z,23.50
2019-01-24T07:05:42.853Z,20.77
2019-01-24T07:08:12.486Z,21.87
2019-01-24T07:10:42.176Z,22.07
2019-01-24T07:13:11.799Z,22.37
2019-01-24T07:15:41.555Z,22.43
2019-01-24T07:18:11.168Z,22.67
2019-01-24T07:20:40.849Z,22.60
2019-01-24T07:23:10.482Z,21.20
2019-01-24T07:25:40.153Z,20.80
2019-01-24T07:28:09.807Z,21.27
2019-01-24T07:30:39.508Z,20.23
2019-01-24T07:33:09.176Z,22.37
2019-01-24T07:35:38.863Z,21.13
2019-01-24T07:38:09.829Z,19.43
2019-01-24T07:40:39.935Z,19.57
2019-01-24T07:43:09.648Z,18.37
2019-01-24T07:45:41.928Z,19.73
2019-01-24T07:48:11.670Z,19.03
2019-01-24T07:50:41.286Z,19.63
2019-01-24T07:53:10.931Z,19.10
2019-01-24T07:55:40.634Z,17.80
2019-01-24T07:58:10.304Z,18.10
2019-01-24T08:00:40.007Z,19.27
2019-01-24T08:03:09.687Z,18.77
2019-01-24T08:05:39.358Z,18.87
2019-01-24T08:08:09.096Z,19.03
2019-01-24T08:10:38.779Z,18.40
2019-01-24T08:13:08.465Z,17.87
2019-01-24T08:15:38.234Z,18.60
2019-01-24T08:18:07.944Z,18.90
2019-01-24T08:20:37.647Z,18.63
2019-01-24T08:23:07.379Z,18.83
2019-01-24T08:25:37.046Z,18.77
2019-01-24T08:28:06.743Z,19.53
2019-01-24T08:30:36.506Z,17.87
2019-01-24T08:33:06.327Z,18.90
2019-01-24T08:35:35.991Z,18.60
2019-01-24T08:38:06.286Z,18.30
2019-01-24T08:40:35.979Z,18.33
2019-01-24T08:43:05.655Z,18.47
2019-01-24T08:45:35.305Z,19.33
2019-01-24T08:48:05.031Z,17.33
2019-01-24T08:50:34.759Z,16.30
2019-01-24T08:53:05.082Z,17.73
2019-01-24T08:55:45.065Z,18.27
2019-01-24T08:58:14.766Z,18.90
2019-01-24T09:00:51.711Z,18.43
2019-01-24T09:03:32.215Z,18.30
2019-01-24T09:06:02.059Z,16.37
2019-01-24T09:08:31.754Z,17.53
2019-01-24T09:11:01.431Z,16.33
2019-01-24T09:13:31.174Z,17.50
2019-01-24T09:16:00.831Z,17.27
2019-01-24T09:18:30.627Z,15.30
2019-01-24T09:21:00.287Z,16.77
2019-01-24T09:23:30.002Z,14.97
2019-01-24T09:25:59.710Z,15.80
2019-01-24T09:28:29.425Z,17.43
2019-01-24T09:30:59.177Z,16.17
2019-01-24T09:33:28.827Z,15.33
2019-01-24T09:35:58.549Z,15.83
2019-01-24T09:38:28.281Z,15.90
2019-01-24T09:40:58.067Z,17.00
2019-01-24T09:43:27.711Z,16.17
2019-01-24T09:45:57.578Z,15.60
2019-01-24T09:48:27.270Z,16.43
2019-01-24T09:50:56.924Z,16.93
2019-01-24T09:53:26.590Z,17.23
2019-01-24T09:55:56.309Z,16.30
2019-01-24T09:58:25.911Z,14.57
2019-01-24T10:00:56.044Z,16.33
2019-01-24T10:03:25.807Z,15.53
2019-01-24T10:05:55.409Z,15.20
2019-01-24T10:08:25.080Z,14.80
2019-01-24T10:10:54.839Z,15.37
2019-01-24T10:13:24.503Z,16.17
2019-01-24T10:15:54.160Z,16.53
2019-01-24T10:18:24.025Z,16.07
2019-01-24T10:20:53.770Z,15.23
2019-01-24T10:23:23.587Z,16.80
2019-01-24T10:25:53.248Z,16.27
2019-01-24T10:28:22.877Z,15.17
2019-01-24T10:30:52.569Z,16.17
2019-01-24T10:33:22.286Z,16.13
2019-01-24T10:35:52.220Z,15.77
2019-01-24T10:38:21.878Z,16.23
2019-01-24T10:40:51.663Z,16.07
2019-01-24T10:43:21.302Z,15.50
2019-01-24T10:45:51.003Z,16.00
2019-01-24T10:48:20.723Z,15.87
2019-01-24T10:50:50.726Z,16.43
2019-01-24T10:53:20.342Z,15.90
2019-01-24T10:55:50.054Z,16.90
2019-01-24T10:58:19.780Z,15.03
2019-01-24T11:00:49.463Z,16.17
2019-01-24T11:03:20.480Z,16.47
2019-01-24T11:05:50.151Z,15.30
2019-01-24T11:08:20.018Z,15.60
2019-01-24T11:10:49.655Z,15.70
2019-01-24T11:13:19.347Z,16.07
2019-01-24T11:15:49.038Z,17.63
2019-01-24T11:18:18.712Z,14.50
2019-01-24T11:20:48.702Z,15.77
2019-01-24T11:23:19.328Z,17.13
2019-01-24T11:25:49.023Z,16.83
2019-01-24T11:28:37.786Z,15.30
2019-01-24T11:31:07.471Z,15.00
2019-01-24T11:33:37.203Z,15.87
2019-01-24T11:36:07.785Z,16.47
2019-01-24T11:38:37.463Z,17.47
2019-01-24T11:41:07.248Z,17.00
2019-01-24T11:43:36.875Z,16.17
2019-01-24T11:46:06.809Z,15.03
2019-01-24T11:48:36.465Z,14.30
2019-01-24T11:51:06.402Z,15.47
2019-01-24T11:53:36.082Z,15.70
2019-01-24T11:56:06.339Z,15.40
2019-01-24T11:58:37.092Z,15.83
2019-01-24T12:01:06.747Z,15.10
2019-01-24T12:03:36.451Z,15.07
2019-01-24T12:06:06.441Z,15.77
2019-01-24T12:08:36.047Z,15.50
2019-01-24T12:11:05.810Z,15.80
2019-01-24T12:13:35.589Z,15.43
2019-01-24T12:16:05.229Z,18.00
2019-01-24T12:18:34.927Z,14.87
2019-01-24T12:21:04.720Z,16.83
2019-01-24T12:23:34.486Z,14.97
2019-01-24T12:26:04.191Z,16.37
2019-01-24T12:28:33.879Z,16.03
2019-01-24T12:31:03.583Z,15.47
2019-01-24T12:33:33.309Z,16.93
2019-01-24T12:36:03.050Z,17.27
2019-01-24T12:38:32.830Z,16.00
2019-01-24T12:41:02.599Z,17.00
2019-01-24T12:43:32.232Z,15.07
2019-01-24T12:46:01.917Z,16.07
2019-01-24T12:48:31.537Z,17.40
2019-01-24T12:51:01.297Z,16.93
2019-01-24T12:53:32.241Z,17.10
2019-01-24T12:56:01.945Z,17.27
2019-01-24T12:58:31.616Z,17.00
2019-01-24T13:01:01.324Z,15.90
2019-01-24T13:03:30.934Z,15.87
2019-01-24T13:06:01.033Z,16.80
2019-01-24T13:08:31.210Z,15.63
2019-01-24T13:11:01.003Z,15.87
2019-01-24T13:13:30.698Z,16.83
2019-01-24T13:16:00.351Z,15.60
2019-01-24T13:18:30.078Z,16.73
2019-01-24T13:20:59.920Z,17.23
2019-01-24T13:23:29.639Z,17.60
2019-01-24T13:25:59.315Z,17.20
2019-01-24T13:28:28.957Z,15.80
2019-01-24T13:30:58.779Z,15.90
2019-01-24T13:33:28.555Z,16.70
2019-01-24T13:35:58.286Z,18.13
2019-01-24T13:38:27.943Z,17.00
2019-01-24T13:40:57.641Z,16.50
2019-01-24T13:43:27.318Z,17.57
2019-01-24T13:45:56.955Z,16.30
2019-01-24T13:48:26.618Z,16.67
2019-01-24T13:50:56.406Z,19.43
2019-01-24T13:53:26.059Z,21.17
2019-01-24T13:55:57.161Z,19.70
2019-01-24T13:58:26.864Z,20.13
2019-01-24T14:00:56.546Z,22.00
2019-01-24T14:03:51.716Z,21.00
2019-01-24T14:06:21.414Z,20.33
2019-01-24T14:08:51.175Z,23.43
2019-01-24T14:11:20.966Z,23.80
2019-01-24T14:13:50.644Z,23.17
2019-01-24T14:16:20.308Z,21.80
2019-01-24T14:18:49.989Z,23.80
2019-01-24T14:21:19.774Z,23.80
2019-01-24T14:23:49.489Z,21.60
2019-01-24T14:26:19.173Z,23.30
2019-01-24T14:28:48.882Z,23.20
2019-01-24T14:31:18.569Z,23.20
2019-01-24T14:33:48.267Z,21.27
2019-01-24T14:36:17.907Z,24.47
2019-01-24T14:38:47.622Z,22.03
2019-01-24T14:41:17.408Z,23.77
2019-01-24T14:43:47.082Z,23.27
2019-01-24T14:46:16.759Z,22.33
2019-01-24T14:48:46.477Z,23.70
2019-01-24T14:51:16.586Z,22.23
2019-01-24T14:53:46.303Z,23.57
2019-01-24T14:56:16.003Z,21.90
2019-01-24T14:58:45.708Z,22.53
2019-01-24T15:01:18.410Z,22.67
2019-01-24T15:03:48.102Z,21.03
2019-01-24T15:06:17.864Z,20.97
2019-01-24T15:08:47.559Z,23.50
2019-01-24T15:11:17.274Z,23.23
2019-01-24T15:13:46.884Z,22.27
2019-01-24T15:16:16.612Z,20.90
2019-01-24T15:18:46.227Z,21.10
2019-01-24T15:21:16.012Z,24.50
2019-01-24T15:23:45.722Z,20.83
2019-01-24T15:26:15.604Z,21.47
2019-01-24T15:28:45.362Z,23.87
2019-01-24T15:31:15.009Z,22.73
2019-01-24T15:33:44.754Z,23.67
2019-01-24T15:36:14.696Z,22.43
2019-01-24T15:38:44.419Z,21.63
2019-01-24T15:41:14.052Z,22.10
2019-01-24T15:43:43.750Z,22.00
2019-01-24T15:46:13.455Z,23.53
2019-01-24T15:48:43.249Z,23.63
2019-01-24T15:51:13.101Z,21.70
2019-01-24T15:53:42.846Z,23.43
2019-01-24T15:56:12.471Z,20.33
2019-01-24T15:58:42.213Z,24.33
2019-01-24T16:01:11.893Z,23.17
2019-01-24T16:03:41.724Z,22.17
2019-01-24T16:06:11.421Z,22.97
2019-01-24T16:08:41.691Z,21.83
2019-01-24T16:11:11.392Z,23.93
2019-01-24T16:13:41.110Z,23.97
2019-01-24T16:16:10.788Z,23.07
2019-01-24T16:18:40.490Z,22.80
2019-01-24T16:21:11.210Z,22.03
2019-01-24T16:23:41.143Z,23.07
2019-01-24T16:26:10.861Z,23.30
2019-01-24T16:28:40.498Z,20.20
2019-01-24T16:31:10.202Z,21.43
2019-01-24T16:33:39.887Z,21.97
2019-01-24T16:36:09.642Z,21.67
2019-01-24T16:38:39.392Z,20.47
2019-01-24T16:41:09.118Z,23.87
2019-01-24T16:43:38.747Z,22.37
2019-01-24T16:46:08.574Z,23.50
2019-01-24T16:48:38.231Z,23.10
2019-01-24T16:51:07.939Z,21.63
2019-01-24T16:53:37.621Z,23.07
2019-01-24T16:56:07.361Z,21.57
2019-01-24T16:58:37.322Z,24.27
2019-01-24T17:01:19.355Z,23.80
2019-01-24T17:03:49.274Z,25.03
2019-01-24T17:06:19.026Z,24.40
2019-01-24T17:08:49.384Z,22.87
2019-01-24T17:11:19.091Z,22.60
2019-01-24T17:13:49.347Z,21.87
2019-01-24T17:16:19.167Z,20.77
2019-01-24T17:18:48.868Z,21.07
2019-01-24T17:21:18.509Z,21.80
2019-01-24T17:23:48.267Z,24.50
2019-01-24T17:26:18.297Z,22.10
2019-01-24T17:28:48.033Z,23.43
2019-01-24T17:31:18.044Z,22.57
2019-01-24T17:33:47.954Z,23.10
2019-01-24T17:36:17.631Z,21.83
2019-01-24T17:38:47.370Z,22.83
2019-01-24T17:41:17.143Z,21.13
2019-01-24T17:43:46.837Z,24.30
2019-01-24T17:46:16.539Z,23.83
2019-01-24T17:48:46.175Z,23.87
2019-01-24T17:51:16.709Z,21.77
2019-01-24T17:53:50.179Z,21.73
2019-01-24T17:56:19.845Z,21.43
2019-01-24T17:58:49.659Z,22.00
2019-01-24T18:01:21.029Z,22.87
2019-01-24T18:03:50.717Z,23.13
2019-01-24T18:06:20.486Z,23.37
2019-01-24T18:08:50.240Z,23.90
2019-01-24T18:11:19.950Z,24.50
2019-01-24T18:13:49.601Z,23.17
2019-01-24T18:16:19.302Z,23.30
2019-01-24T18:18:49.025Z,21.83
2019-01-24T18:21:18.756Z,22.60
2019-01-24T18:23:48.413Z,20.70
2019-01-24T18:26:19.142Z,21.63
2019-01-24T18:28:49.556Z,21.00
2019-01-24T18:31:19.288Z,23.77
2019-01-24T18:33:48.983Z,22.47
2019-01-24T18:36:18.667Z,22.43
2019-01-24T18:38:49.222Z,22.00
2019-01-24T18:41:19.759Z,21.17
2019-01-24T18:43:51.796Z,21.30
2019-01-24T18:46:21.495Z,23.33
2019-01-24T18:48:51.179Z,20.90
2019-01-24T18:51:20.887Z,22.60
2019-01-24T18:53:50.587Z,21.30
2019-01-24T18:56:20.273Z,22.13
2019-01-24T18:58:50.429Z,20.90
2019-01-24T19:01:20.442Z,20.77
2019-01-24T19:03:50.178Z,20.10
2019-01-24T19:06:21.498Z,21.33
2019-01-24T19:08:51.186Z,20.37
2019-01-24T19:11:21.166Z,20.10
2019-01-24T19:13:50.833Z,21.83
2019-01-24T19:16:20.623Z,21.60
2019-01-24T19:18:50.325Z,19.10
2019-01-24T19:21:20.002Z,19.57
2019-01-24T19:23:49.724Z,21.07
2019-01-24T19:26:23.961Z,23.37
2019-01-24T19:28:54.086Z,22.37
2019-01-24T19:31:24.179Z,22.53
2019-01-24T19:33:57.821Z,22.43
2019-01-24T19:36:27.966Z,19.97
2019-01-24T19:38:57.774Z,21.47
2019-01-24T19:41:27.456Z,21.83
2019-01-24T19:43:57.147Z,22.90
2019-01-24T19:46:26.943Z,22.20
2019-01-24T19:48:56.627Z,22.47
2019-01-24T19:51:26.410Z,22.73
2019-01-24T19:53:56.197Z,20.93
2019-01-24T19:56:26.622Z,22.00
2019-01-24T19:58:56.511Z,21.70
2019-01-24T20:01:26.392Z,24.17
2019-01-24T20:03:56.379Z,23.27
2019-01-24T20:06:26.648Z,22.60
2019-01-24T20:09:00.424Z,23.67
2019-01-24T20:11:27.826Z,23.50
2019-01-24T20:13:57.594Z,22.40
2019-01-24T20:16:27.571Z,23.60
2019-01-24T20:18:57.323Z,23.83
2019-01-24T20:21:27.192Z,22.87
2019-01-24T20:23:57.051Z,24.87
2019-01-24T20:26:26.729Z,22.37
2019-01-24T20:28:56.774Z,22.33
2019-01-24T20:31:26.506Z,21.13
2019-01-24T20:33:59.006Z,24.40
2019-01-24T20:36:30.040Z,21.93
2019-01-24T20:38:59.843Z,22.90
2019-01-24T20:41:31.837Z,23.03
2019-01-24T20:44:01.618Z,24.13
2019-01-24T20:46:31.970Z,23.80
2019-01-24T20:49:01.756Z,22.47
2019-01-24T20:51:31.634Z,22.70
2019-01-24T20:54:01.332Z,21.23
2019-01-24T20:56:31.655Z,22.83
2019-01-24T20:59:02.390Z,22.07
2019-01-24T21:01:32.115Z,20.97
2019-01-24T21:04:01.894Z,23.40
2019-01-24T21:06:31.676Z,21.90
2019-01-24T21:09:01.353Z,22.43
2019-01-24T21:11:31.084Z,21.67
2019-01-24T21:14:00.744Z,21.97
2019-01-24T21:16:30.506Z,22.10
2019-01-24T21:19:00.619Z,21.60
2019-01-24T21:21:30.300Z,21.50
2019-01-24T21:24:00.362Z,23.23
2019-01-24T21:26:30.155Z,21.70
2019-01-24T21:28:59.876Z,21.60
2019-01-24T21:31:29.537Z,21.87
2019-01-24T21:33:59.728Z,20.73
2019-01-24T21:36:29.451Z,21.80
2019-01-24T21:39:00.540Z,19.67
2019-01-24T21:41:30.498Z,21.73
2019-01-24T21:44:00.209Z,21.33
2019-01-24T21:46:29.907Z,18.90
2019-01-24T21:48:59.894Z,21.30
2019-01-24T21:51:29.561Z,20.93
2019-01-24T21:54:00.417Z,21.10
2019-01-24T21:56:30.219Z,21.27
2019-01-24T21:59:00.409Z,21.23
2019-01-24T22:01:30.029Z,21.37
2019-01-24T22:03:59.720Z,21.50
2019-01-24T22:06:29.480Z,20.77
2019-01-24T22:08:59.116Z,20.37
2019-01-24T22:11:28.818Z,20.87
2019-01-24T22:13:59.063Z,20.10
2019-01-24T22:16:28.744Z,21.13
2019-01-24T22:18:58.431Z,18.37
2019-01-24T22:21:28.078Z,20.20
2019-01-24T22:23:57.857Z,20.97
2019-01-24T22:26:27.539Z,21.40
2019-01-24T22:28:57.295Z,20.83
2019-01-24T22:31:27.009Z,22.63
2019-01-24T22:33:56.672Z,20.07
2019-01-24T22:36:26.394Z,21.17
2019-01-24T22:38:56.215Z,20.63
2019-01-24T22:41:25.858Z,20.30
2019-01-24T22:43:55.536Z,21.40
2019-01-24T22:46:25.228Z,21.40
2019-01-24T22:48:54.893Z,20.67
2019-01-24T22:51:24.616Z,20.73
2019-01-24T22:53:54.426Z,20.93
2019-01-24T22:56:24.100Z,20.33
2019-01-24T22:58:53.743Z,20.20
2019-01-24T23:01:49.971Z,21.10
2019-01-24T23:04:22.178Z,22.20
2019-01-24T23:06:51.924Z,20.93
2019-01-24T23:09:21.705Z,19.93
2019-01-24T23:11:51.404Z,21.33
2019-01-24T23:14:21.126Z,17.80
2019-01-24T23:16:50.848Z,19.07
2019-01-24T23:19:20.495Z,21.07
2019-01-24T23:21:50.135Z,19.00
2019-01-24T23:24:19.857Z,19.47
2019-01-24T23:26:49.574Z,21.50
2019-01-24T23:29:19.616Z,21.70
2019-01-24T23:31:49.267Z,22.13
2019-01-24T23:34:18.903Z,20.50
2019-01-24T23:36:48.642Z,20.63
2019-01-24T23:39:18.279Z,21.33
2019-01-24T23:41:47.968Z,19.50
2019-01-24T23:44:17.852Z,20.63
2019-01-24T23:46:47.966Z,18.60
2019-01-24T23:49:17.677Z,19.73
2019-01-24T23:51:47.299Z,19.23
2019-01-24T23:54:16.966Z,20.23
2019-01-24T23:56:46.671Z,20.77
2019-01-24T23:59:16.313Z,22.07
